Time;durP1;ratioP1;P1;durP2;ratioP2;P2;SDS_P1;SDS_P2;PMS_P1;PMS_P2;Temp;Humidity;BMP_temperature;BMP_pressure;BME280_temperature;BME280_humidity;BME280_pressure;Samples;Min_cycle;Max_cycle;Signal;HPM_P1;HPM_P2
2020/12/06 00:01:41;;;;;;;84.65;34.95;;;;;;;2.98;77.92;93883.03;5073698;28;20048;-51
2020/12/06 00:04:08;;;;;;;74.20;32.67;;;;;;;2.86;78.67;93883.00;5073862;28;20363;-51
2020/12/06 00:06:34;;;;;;;69.72;33.35;;;;;;;3.11;77.30;93881.13;5072680;28;20106;-45
2020/12/06 00:09:01;;;;;;;59.83;30.98;;;;;;;3.19;76.57;93893.59;5072983;28;20140;-46
2020/12/06 00:11:28;;;;;;;57.60;29.23;;;;;;;3.06;76.73;93887.47;5072998;28;20048;-45
2020/12/06 00:13:54;;;;;;;58.20;31.75;;;;;;;3.11;76.64;93871.22;5073252;28;20450;-49
2020/12/06 00:16:20;;;;;;;56.58;30.33;;;;;;;3.09;76.70;93892.16;5072219;28;20053;-48
2020/12/06 00:18:48;;;;;;;54.97;30.00;;;;;;;2.89;77.11;93871.66;5072961;28;20141;-44
2020/12/06 00:21:16;;;;;;;61.75;31.10;;;;;;;2.94;77.56;93898.16;5072714;28;20055;-45
2020/12/06 00:23:44;;;;;;;55.03;29.92;;;;;;;2.94;77.23;93892.81;5072830;28;20049;-45
2020/12/06 00:26:11;;;;;;;58.95;31.17;;;;;;;2.89;76.67;93863.66;5072081;28;20055;-45
2020/12/06 00:28:37;;;;;;;55.72;30.25;;;;;;;2.89;77.24;93859.06;5072597;28;20502;-48
2020/12/06 00:31:04;;;;;;;54.15;29.70;;;;;;;3.02;76.99;93858.00;5072748;28;20536;-45
2020/12/06 00:33:30;;;;;;;53.00;27.60;;;;;;;3.04;76.92;93850.41;5072698;28;20080;-45
2020/12/06 00:35:57;;;;;;;50.67;28.35;;;;;;;3.10;76.72;93860.88;5071838;28;20045;-45
2020/12/06 00:38:23;;;;;;;49.10;27.17;;;;;;;3.13;76.74;93879.69;5072365;28;20144;-44
2020/12/06 00:40:50;;;;;;;52.95;28.92;;;;;;;3.12;76.43;93872.78;5072569;28;20410;-44
2020/12/06 00:43:16;;;;;;;55.00;29.85;;;;;;;3.19;76.19;93861.53;5072352;28;20051;-49
2020/12/06 00:45:42;;;;;;;53.47;29.55;;;;;;;3.23;76.24;93859.75;5072276;28;20064;-50
2020/12/06 00:48:09;;;;;;;50.53;27.83;;;;;;;3.35;75.58;93862.41;5072577;28;20498;-51
2020/12/06 00:50:35;;;;;;;50.88;28.15;;;;;;;3.14;75.38;93865.19;5073140;28;20058;-50
2020/12/06 00:53:03;;;;;;;61.60;30.80;;;;;;;3.13;75.54;93863.66;5071685;28;20062;-54
2020/12/06 00:55:31;;;;;;;52.88;29.52;;;;;;;3.21;75.72;93864.63;5070864;28;20040;-49
2020/12/06 00:57:58;;;;;;;45.42;27.17;;;;;;;3.25;75.56;93854.81;5071392;28;20068;-51
2020/12/06 01:00:24;;;;;;;50.15;29.30;;;;;;;3.15;75.63;93845.41;5072263;28;20127;-50
2020/12/06 01:02:51;;;;;;;50.45;28.20;;;;;;;3.32;74.60;93838.25;5072223;28;20128;-48
2020/12/06 01:05:17;;;;;;;56.53;29.23;;;;;;;2.99;75.43;93833.81;5071373;28;20052;-44
2020/12/06 01:07:44;;;;;;;50.42;28.77;;;;;;;2.96;76.07;93839.84;5070612;28;20052;-45
2020/12/06 01:10:12;;;;;;;55.00;29.77;;;;;;;2.73;76.43;93850.16;5071981;28;20490;-44
2020/12/06 01:12:39;;;;;;;63.50;31.33;;;;;;;2.53;77.72;93852.59;5072087;28;20458;-46
2020/12/06 01:15:08;;;;;;;61.85;32.25;;;;;;;2.54;78.21;93870.19;5072343;28;20053;-53
2020/12/06 01:17:35;;;;;;;54.83;30.40;;;;;;;2.56;78.09;93888.53;5071699;28;20421;-51
2020/12/06 01:20:04;;;;;;;55.88;31.75;;;;;;;2.35;78.71;93891.28;5072035;28;20051;-45
2020/12/06 01:22:31;;;;;;;58.30;31.58;;;;;;;2.20;79.99;93874.00;5070650;28;20134;-44
2020/12/06 01:24:58;;;;;;;64.35;32.67;;;;;;;2.02;80.15;93843.28;5071534;28;20135;-46
2020/12/06 01:27:24;;;;;;;64.18;32.47;;;;;;;2.18;80.41;93860.22;5071156;28;20052;-45
2020/12/06 01:29:51;;;;;;;58.75;32.42;;;;;;;2.23;80.14;93856.56;5071526;28;20127;-47
2020/12/06 01:32:17;;;;;;;59.13;31.35;;;;;;;2.31;80.00;93837.03;5071677;28;20414;-44
2020/12/06 01:34:44;;;;;;;61.28;33.22;;;;;;;2.26;79.95;93805.19;5071457;28;20106;-45
2020/12/06 01:37:10;;;;;;;61.38;31.92;;;;;;;2.45;79.29;93850.81;5070738;28;20136;-45
2020/12/06 01:39:36;;;;;;;54.72;30.63;;;;;;;2.44;79.19;93862.63;5071475;28;20044;-45
2020/12/06 01:42:03;;;;;;;55.33;29.15;;;;;;;2.70;78.31;93864.22;5071289;28;20048;-44
2020/12/06 01:44:30;;;;;;;55.00;28.58;;;;;;;2.52;78.15;93851.06;5071382;28;20505;-49
2020/12/06 01:46:57;;;;;;;55.65;30.88;;;;;;;2.50;78.64;93841.81;5069528;28;20047;-46
2020/12/06 01:49:26;;;;;;;64.95;33.22;;;;;;;2.33;79.35;93858.81;5070991;28;20052;-46
2020/12/06 01:51:58;;;;;;;75.43;35.17;;;;;;;1.89;81.38;93850.47;5071165;28;20132;-47
2020/12/06 01:54:25;;;;;;;;;;;;;;;2.18;81.14;93838.06;5071580;28;20428;-45
2020/12/06 01:56:52;;;;;;;67.40;32.45;;;;;;;2.38;79.99;93823.13;5070654;28;19951;-44
2020/12/06 01:59:18;;;;;;;72.85;34.60;;;;;;;2.28;80.34;93803.00;5071075;28;20426;-48
2020/12/06 02:02:02;;;;;;;98.88;39.75;;;;;;;2.34;80.46;93820.34;5053221;28;20048;-48
2020/12/06 02:04:30;;;;;;;101.75;40.28;;;;;;;2.36;80.06;93796.00;5071133;28;20063;-45
2020/12/06 02:06:58;;;;;;;96.88;38.55;;;;;;;2.43;79.95;93826.34;5070472;28;20132;-45
2020/12/06 02:09:26;;;;;;;97.85;39.40;;;;;;;2.33;80.16;93853.47;5070528;28;20577;-48
2020/12/06 02:11:52;;;;;;;98.60;38.42;;;;;;;1.94;82.25;93850.25;5071066;28;20040;-49
2020/12/06 02:14:19;;;;;;;98.78;40.22;;;;;;;2.02;81.38;93811.28;5070657;28;20467;-47
2020/12/06 02:16:46;;;;;;;103.75;39.20;;;;;;;2.20;80.79;93791.28;5069527;28;20084;-47
2020/12/06 02:19:13;;;;;;;91.47;39.20;;;;;;;2.34;80.45;93785.66;5070828;28;20127;-49
2020/12/06 02:21:41;;;;;;;111.72;40.72;;;;;;;2.50;79.65;93772.41;5070372;28;20076;-47
2020/12/06 02:24:08;;;;;;;90.35;39.38;;;;;;;2.56;79.33;93784.44;5068978;28;20511;-51
2020/12/06 02:26:40;;;;;;;103.72;39.33;;;;;;;2.73;78.69;93778.88;5070243;28;20509;-47
2020/12/06 02:29:06;;;;;;;129.27;41.70;;;;;;;2.75;78.31;93757.94;5070815;28;20419;-49
2020/12/06 02:31:33;;;;;;;102.68;39.20;;;;;;;2.74;78.27;93756.41;5070955;28;20052;-48
2020/12/06 02:33:59;;;;;;;88.63;37.65;;;;;;;2.69;78.64;93729.13;5071176;28;20036;-50
2020/12/06 02:36:26;;;;;;;89.40;37.50;;;;;;;2.64;78.93;93742.72;5070632;28;20102;-49
2020/12/06 02:38:54;;;;;;;83.13;35.63;;;;;;;2.69;78.72;93742.50;5071154;28;20082;-48
2020/12/06 02:41:21;;;;;;;92.15;38.33;;;;;;;2.78;78.05;93751.94;5070844;28;20099;-49
2020/12/06 02:43:47;;;;;;;104.72;41.00;;;;;;;2.68;78.47;93763.06;5070942;28;20509;-49
2020/12/06 02:46:14;;;;;;;103.88;42.67;;;;;;;2.48;79.09;93770.09;5070196;28;20056;-49
2020/12/06 02:48:40;;;;;;;88.13;37.83;;;;;;;2.26;80.06;93757.19;5070842;28;20056;-45
2020/12/06 02:51:07;;;;;;;82.90;36.22;;;;;;;2.47;79.59;93767.75;5070604;28;20418;-45
2020/12/06 02:53:33;;;;;;;100.25;38.65;;;;;;;2.50;78.92;93745.72;5070554;28;20439;-44
2020/12/06 02:55:59;;;;;;;73.13;34.53;;;;;;;2.16;80.45;93747.72;5068854;28;20537;-49
2020/12/06 02:58:26;;;;;;;79.30;37.03;;;;;;;2.51;79.25;93753.41;5071164;28;20532;-50
2020/12/06 03:00:52;;;;;;;70.22;33.97;;;;;;;2.56;78.80;93723.81;5069785;28;20127;-53
2020/12/06 03:03:19;;;;;;;61.78;31.85;;;;;;;2.67;78.48;93728.72;5071179;28;20141;-54
2020/12/06 03:05:45;;;;;;;71.32;33.80;;;;;;;2.57;77.75;93704.03;5070538;28;20084;-45
2020/12/06 03:08:12;;;;;;;60.28;31.65;;;;;;;2.33;79.47;93680.78;5069475;28;20086;-46
2020/12/06 03:10:38;;;;;;;64.22;31.73;;;;;;;2.37;79.34;93656.09;5070849;28;20056;-45
2020/12/06 03:13:04;;;;;;;66.35;32.15;;;;;;;2.19;79.52;93674.25;5071064;28;20044;-50
2020/12/06 03:15:31;;;;;;;80.03;33.60;;;;;;;2.29;78.46;93682.56;5070077;28;20127;-44
2020/12/06 03:17:57;;;;;;;104.30;37.13;;;;;;;1.97;79.52;93686.91;5070843;28;20469;-47
2020/12/06 03:20:24;;;;;;;65.97;33.25;;;;;;;1.83;80.63;93692.56;5070905;28;20082;-53
2020/12/06 03:22:50;;;;;;;57.97;30.45;;;;;;;1.94;80.22;93690.22;5070968;28;20390;-44
2020/12/06 03:25:16;;;;;;;73.32;33.90;;;;;;;2.24;78.76;93708.69;5069949;28;20072;-49
2020/12/06 03:27:43;;;;;;;73.43;33.33;;;;;;;2.09;79.15;93704.81;5072105;28;20131;-50
2020/12/06 03:30:09;;;;;;;110.88;38.33;;;;;;;1.67;80.76;93702.31;5072414;28;20044;-47
2020/12/06 03:32:39;;;;;;;72.60;34.50;;;;;;;1.82;80.86;93701.69;5072951;28;20425;-50
2020/12/06 03:35:06;;;;;;;75.28;33.95;;;;;;;2.03;79.91;93711.47;5074139;28;20116;-49
2020/12/06 03:37:32;;;;;;;74.18;36.88;;;;;;;1.55;81.26;93713.72;5073221;28;20049;-51
2020/12/06 03:39:59;;;;;;;115.22;36.88;;;;;;;1.29;81.89;93705.19;5073734;28;20496;-55
2020/12/06 03:42:26;;;;;;;89.22;37.63;;;;;;;1.37;82.11;93683.03;5074470;28;20434;-55
2020/12/06 03:44:53;;;;;;;139.55;39.10;;;;;;;1.35;82.27;93690.56;5073052;28;20502;-52
2020/12/06 03:47:19;;;;;;;155.18;42.95;;;;;;;0.91;84.22;93695.47;5073000;28;20052;-48
2020/12/06 03:49:45;;;;;;;172.93;44.88;;;;;;;0.91;84.40;93692.81;5074080;28;20048;-43
2020/12/06 03:52:12;;;;;;;179.77;43.40;;;;;;;0.92;84.56;93703.16;5073433;28;20460;-46
2020/12/06 03:54:38;;;;;;;93.40;40.53;;;;;;;1.08;83.93;93703.34;5073302;28;20080;-49
2020/12/06 03:57:05;;;;;;;93.18;37.22;;;;;;;1.23;83.37;93709.16;5071637;28;20124;-49
2020/12/06 03:59:32;;;;;;;100.90;37.65;;;;;;;1.33;82.71;93693.56;5073390;28;20044;-44
2020/12/06 04:01:59;;;;;;;146.95;40.30;;;;;;;0.89;84.13;93695.06;5073515;28;20064;-44
2020/12/06 04:04:25;;;;;;;136.80;40.67;;;;;;;0.88;84.64;93706.81;5073382;28;20068;-45
2020/12/06 04:06:51;;;;;;;115.25;41.95;;;;;;;0.92;84.69;93707.72;5072737;28;20048;-50
2020/12/06 04:09:18;;;;;;;144.68;40.22;;;;;;;0.78;84.99;93705.31;5101738;22;20113;-46
2020/12/06 04:11:44;;;;;;;149.35;42.85;;;;;;;1.02;84.34;93694.00;5094050;28;20151;-46
2020/12/06 04:14:11;;;;;;;127.55;44.58;;;;;;;0.60;86.03;93701.97;5094180;28;20044;-48
2020/12/06 04:16:37;;;;;;;188.77;44.08;;;;;;;0.70;85.62;93711.47;5075050;28;20102;-47
2020/12/06 04:19:03;;;;;;;232.52;45.85;;;;;;;0.86;85.08;93723.09;5093848;28;20052;-49
2020/12/06 04:21:30;;;;;;;204.85;45.78;;;;;;;0.99;84.89;93717.84;5094082;28;20099;-49
2020/12/06 04:23:56;;;;;;;211.68;51.20;;;;;;;0.94;84.33;93678.84;5093738;28;20492;-48
2020/12/06 04:26:22;;;;;;;165.23;45.55;;;;;;;1.09;84.83;93691.59;5092983;28;20509;-45
2020/12/06 04:28:49;;;;;;;133.13;42.33;;;;;;;1.20;83.60;93683.19;5093623;28;20135;-46
2020/12/06 04:31:15;;;;;;;111.30;43.13;;;;;;;1.03;84.76;93679.56;5093622;28;20074;-46
2020/12/06 04:33:42;;;;;;;129.82;42.63;;;;;;;0.74;85.54;93706.28;5093538;28;20131;-47
2020/12/06 04:36:08;;;;;;;140.50;43.85;;;;;;;0.76;85.39;93682.78;5093015;28;20052;-46
2020/12/06 04:38:34;;;;;;;206.38;49.22;;;;;;;0.56;86.69;93703.75;5092681;28;20382;-47
2020/12/06 04:41:01;;;;;;;122.80;45.97;;;;;;;0.51;87.42;93697.81;5093586;28;20052;-47
2020/12/06 04:43:29;;;;;;;112.22;45.10;;;;;;;0.95;86.53;93731.03;5093226;28;20127;-46
2020/12/06 04:45:56;;;;;;;186.95;48.22;;;;;;;1.38;84.32;93737.88;5092433;28;20047;-49
2020/12/06 04:48:33;;;;;;;127.65;46.05;;;;;;;1.22;84.31;93720.94;5092354;28;20447;-49
2020/12/06 04:51:04;;;;;;;169.57;48.17;;;;;;;0.67;86.21;93726.19;5093730;28;20548;-50
2020/12/06 04:53:43;;;;;;;222.75;51.03;;;;;;;0.91;85.82;93746.88;5093575;28;20123;-48
2020/12/06 04:56:12;;;;;;;159.13;50.05;;;;;;;1.00;85.82;93741.47;5092743;28;20082;-48
2020/12/06 04:58:42;;;;;;;143.30;46.95;;;;;;;1.28;84.90;93757.69;5093628;28;20113;-49
2020/12/06 05:01:08;;;;;;;128.90;45.65;;;;;;;1.37;84.56;93752.31;5093111;28;20052;-48
2020/12/06 05:03:36;;;;;;;215.02;51.60;;;;;;;1.59;83.42;93746.63;5093158;28;20070;-50
2020/12/06 05:06:04;;;;;;;128.60;45.85;;;;;;;1.56;83.59;93749.94;5092472;28;20063;-50
2020/12/06 05:08:34;;;;;;;114.18;44.80;;;;;;;1.69;83.59;93755.28;5092570;28;20052;-50
2020/12/06 05:11:01;;;;;;;188.52;48.53;;;;;;;1.80;82.05;93751.09;5092978;28;20052;-46
2020/12/06 05:13:28;;;;;;;198.80;51.47;;;;;;;1.49;82.99;93760.31;5092866;28;20513;-48
2020/12/06 05:15:55;;;;;;;149.02;48.55;;;;;;;1.24;84.69;93753.38;5092107;28;20051;-44
2020/12/06 05:18:25;;;;;;;137.73;46.65;;;;;;;1.23;84.57;93778.41;5092786;28;20052;-46
2020/12/06 05:20:51;;;;;;;125.18;44.60;;;;;;;1.42;83.68;93794.72;5091675;28;20217;-48
2020/12/06 05:23:18;;;;;;;116.78;44.33;;;;;;;1.46;83.60;93784.97;5092752;28;20047;-45
2020/12/06 05:25:45;;;;;;;154.77;42.70;;;;;;;1.25;84.31;93784.22;5092057;28;20131;-45
2020/12/06 05:28:11;;;;;;;188.43;45.17;;;;;;;1.18;84.59;93790.06;5091524;28;20062;-45
2020/12/06 05:30:41;;;;;;;115.00;39.38;;;;;;;1.16;84.28;93819.66;5092537;28;20080;-46
2020/12/06 05:33:09;;;;;;;112.65;37.95;;;;;;;1.13;84.47;93824.88;5092761;28;20042;-47
2020/12/06 05:35:35;;;;;;;101.50;37.90;;;;;;;1.16;84.42;93811.69;5091729;28;20079;-46
2020/12/06 05:38:03;;;;;;;103.68;39.08;;;;;;;1.16;83.75;93765.63;5092242;28;20575;-46
2020/12/06 05:40:30;;;;;;;127.30;39.47;;;;;;;1.02;84.50;93792.53;5092260;28;20044;-49
2020/12/06 05:42:56;;;;;;;97.68;38.15;;;;;;;1.04;84.53;93806.31;5092432;28;20048;-46
2020/12/06 05:45:23;;;;;;;94.18;40.13;;;;;;;1.19;83.80;93785.50;5092232;28;20059;-47
2020/12/06 05:47:51;;;;;;;118.22;39.28;;;;;;;0.97;84.57;93798.03;5091169;28;20501;-47
2020/12/06 05:50:19;;;;;;;95.85;38.17;;;;;;;0.94;84.50;93806.66;5091346;28;20056;-45
2020/12/06 05:52:45;;;;;;;116.95;37.58;;;;;;;0.85;84.83;93787.31;5091861;28;20048;-47
2020/12/06 05:55:11;;;;;;;152.15;40.08;;;;;;;0.80;84.35;93755.56;5092528;28;20127;-45
2020/12/06 05:57:44;;;;;;;127.88;39.47;;;;;;;0.72;85.45;93772.38;5092565;28;20420;-44
2020/12/06 06:00:12;;;;;;;174.20;43.05;;;;;;;0.60;85.75;93770.41;5092525;28;20127;-46
2020/12/06 06:02:42;;;;;;;140.65;43.47;;;;;;;0.53;86.37;93789.53;5092146;28;20492;-46
2020/12/06 06:05:09;;;;;;;116.93;42.53;;;;;;;0.76;85.94;93783.94;5091960;28;20488;-46
2020/12/06 06:07:37;;;;;;;131.95;42.92;;;;;;;0.77;85.38;93770.28;5091509;28;20131;-47
2020/12/06 06:10:05;;;;;;;153.00;48.38;;;;;;;0.67;85.89;93768.00;5092091;28;20048;-48
2020/12/06 06:12:34;;;;;;;174.43;50.17;;;;;;;0.51;86.59;93751.03;5092708;28;20083;-49
2020/12/06 06:15:03;;;;;;;130.30;48.78;;;;;;;0.14;87.20;93694.91;5090659;28;20571;-47
2020/12/06 06:17:31;;;;;;;125.82;43.30;;;;;;;0.66;86.62;93756.59;5091399;28;20052;-49
2020/12/06 06:19:58;;;;;;;135.73;44.00;;;;;;;1.00;85.00;93757.44;5092255;28;20131;-47
2020/12/06 06:22:39;;;;;;;166.48;45.75;;;;;;;0.68;85.60;93758.91;5092226;28;20075;-47
2020/12/06 06:25:06;;;;;;;150.45;45.33;;;;;;;0.28;87.33;93780.56;5092075;28;20141;-48
2020/12/06 06:27:38;;;;;;;154.25;45.75;;;;;;;0.65;86.13;93786.97;5091325;28;20131;-47
2020/12/06 06:30:09;;;;;;;130.23;45.78;;;;;;;0.55;87.17;93799.84;5091911;28;20456;-48
2020/12/06 06:32:37;;;;;;;183.05;47.70;;;;;;;0.51;86.63;93813.00;5091846;28;20127;-47
2020/12/06 06:35:06;;;;;;;173.52;51.50;;;;;;;0.47;86.85;93817.41;5091775;28;20064;-46
2020/12/06 06:37:34;;;;;;;134.05;46.25;;;;;;;0.70;86.37;93826.69;5090871;28;20058;-48
2020/12/06 06:40:04;;;;;;;123.93;43.15;;;;;;;0.87;85.38;93811.72;5091585;28;20493;-49
2020/12/06 06:42:31;;;;;;;108.90;41.03;;;;;;;0.98;85.18;93807.59;5091769;28;20078;-49
2020/12/06 06:45:07;;;;;;;132.02;42.30;;;;;;;0.95;84.60;93802.91;5092002;28;20052;-47
2020/12/06 06:47:38;;;;;;;136.50;44.60;;;;;;;0.83;85.51;93803.59;5091021;28;20044;-46
2020/12/06 06:50:07;;;;;;;160.30;46.38;;;;;;;0.45;87.12;93812.41;5091648;28;20509;-48
2020/12/06 06:52:34;;;;;;;162.00;47.83;;;;;;;0.64;86.64;93813.88;5090366;28;20136;-45
2020/12/06 06:55:01;;;;;;;148.82;47.75;;;;;;;0.64;86.21;93814.66;5089925;28;20513;-45
2020/12/06 06:57:29;;;;;;;133.98;45.45;;;;;;;0.80;85.65;93812.22;5091044;28;20078;-45
2020/12/06 06:59:59;;;;;;;114.60;43.08;;;;;;;0.87;85.59;93812.50;5091567;28;20048;-44
2020/12/06 07:02:41;;;;;;;126.93;45.28;;;;;;;1.19;84.66;93817.47;5093304;28;20094;-45
2020/12/06 07:05:14;;;;;;;135.27;44.60;;;;;;;1.10;84.48;93820.19;5095240;28;20079;-50
2020/12/06 07:07:40;;;;;;;106.45;39.95;;;;;;;1.10;84.51;93823.63;5094524;28;20534;-50
2020/12/06 07:10:08;;;;;;;98.13;39.55;;;;;;;1.13;84.22;93815.00;5095018;28;20048;-48
2020/12/06 07:12:41;;;;;;;99.15;39.85;;;;;;;1.27;83.55;93835.25;5095524;28;20398;-45
2020/12/06 07:15:08;;;;;;;;;;;;;;;1.24;84.37;93841.28;5094584;28;20055;-49
2020/12/06 07:17:35;;;;;;;110.47;39.63;;;;;;;0.92;85.08;93822.97;5094414;28;20238;-45
2020/12/06 07:20:04;;;;;;;113.50;41.70;;;;;;;1.05;85.00;93839.81;5095138;28;20047;-45
2020/12/06 07:22:30;;;;;;;101.00;38.05;;;;;;;1.05;84.97;93837.16;5095546;28;20382;-45
2020/12/06 07:24:57;;;;;;;101.70;39.28;;;;;;;1.24;84.65;93833.28;5095457;28;20044;-45
2020/12/06 07:27:23;;;;;;;98.93;38.38;;;;;;;1.29;84.24;93838.41;5094587;28;20135;-46
2020/12/06 07:29:50;;;;;;;97.00;37.55;;;;;;;1.29;84.36;93843.72;5094861;28;20044;-50
2020/12/06 07:32:18;;;;;;;99.53;38.70;;;;;;;1.15;84.67;93855.41;5094812;28;20058;-50
2020/12/06 07:34:45;;;;;;;104.15;38.35;;;;;;;1.41;83.96;93878.44;5094740;28;20507;-49
2020/12/06 07:37:12;;;;;;;106.25;40.17;;;;;;;1.47;84.54;93879.03;5094012;28;20485;-50
2020/12/06 07:39:44;;;;;;;103.80;39.72;;;;;;;1.76;83.62;93875.53;5094615;28;20538;-52
2020/12/06 07:42:18;;;;;;;102.90;38.63;;;;;;;1.76;82.96;93872.84;5093641;28;20070;-49
2020/12/06 07:44:45;;;;;;;;;;;;;;;1.68;83.43;93881.69;5095067;28;20148;-47
2020/12/06 07:47:11;;;;;;;118.03;36.90;;;;;;;1.46;84.37;93875.56;5093932;28;19954;-48
2020/12/06 07:49:45;;;;;;;120.05;37.80;;;;;;;1.62;84.24;93894.41;5094905;28;20079;-50
2020/12/06 07:52:21;;;;;;;116.55;37.40;;;;;;;1.54;84.74;93920.03;5094858;28;20398;-51
2020/12/06 07:55:01;;;;;;;115.72;37.17;;;;;;;1.76;84.27;93924.28;5094722;28;20079;-53
2020/12/06 07:57:49;;;;;;;107.15;31.02;;;;;;;1.71;84.18;93921.03;5093850;28;20058;-52
2020/12/06 08:00:30;;;;;;;120.75;33.92;;;;;;;1.85;84.58;93945.53;5093318;28;20058;-50
2020/12/06 08:03:00;;;;;;;103.18;31.08;;;;;;;1.84;84.38;93941.31;5094131;28;20074;-49
2020/12/06 08:05:29;;;;;;;91.15;27.73;;;;;;;2.22;82.50;93957.16;5093683;28;20117;-50
2020/12/06 08:08:18;;;;;;;80.90;27.63;;;;;;;2.21;82.41;93936.13;5093936;28;20078;-50
2020/12/06 08:10:53;;;;;;;80.18;27.77;;;;;;;2.17;82.59;93946.69;5094088;28;20127;-46
2020/12/06 08:13:20;;;;;;;65.20;25.90;;;;;;;2.14;82.58;93944.66;5093164;28;20127;-48
2020/12/06 08:15:46;;;;;;;74.05;27.25;;;;;;;2.18;81.93;93952.78;5093341;28;20587;-51
2020/12/06 08:18:14;;;;;;;75.38;27.13;;;;;;;2.08;82.27;93927.31;5094017;28;20051;-47
2020/12/06 08:20:55;;;;;;;65.72;25.20;;;;;;;2.34;81.57;93943.88;5094038;28;20083;-50
2020/12/06 08:23:34;;;;;;;62.80;24.25;;;;;;;2.09;83.17;93945.66;5075934;28;20047;-50
2020/12/06 08:26:00;;;;;;;54.30;22.65;;;;;;;2.37;81.04;93926.41;5093214;28;20048;-46
2020/12/06 08:28:26;;;;;;;55.10;22.88;;;;;;;2.34;81.63;93930.53;5092564;28;20044;-44
2020/12/06 08:30:53;;;;;;;59.30;23.95;;;;;;;2.48;80.84;93945.47;5093932;28;20055;-47
2020/12/06 08:33:25;;;;;;;49.60;21.35;;;;;;;2.63;80.34;93941.38;5094132;28;20449;-48
2020/12/06 08:35:54;;;;;;;36.97;16.92;;;;;;;2.43;80.16;93959.00;5093094;28;20079;-44
2020/12/06 08:38:26;;;;;;;33.38;14.38;;;;;;;2.24;81.01;93956.81;5094005;28;20052;-48
2020/12/06 08:40:59;;;;;;;37.70;17.48;;;;;;;2.41;80.86;93961.25;5094175;28;20072;-43
2020/12/06 08:43:41;;;;;;;30.92;15.68;;;;;;;2.28;81.25;93971.09;5093660;28;20127;-45
2020/12/06 08:46:09;;;;;;;37.60;17.77;;;;;;;2.49;80.48;93969.16;5093210;28;20094;-48
2020/12/06 08:48:36;;;;;;;32.42;15.05;;;;;;;2.51;80.00;93968.84;5093530;28;20075;-49
2020/12/06 08:51:03;;;;;;;27.33;14.55;;;;;;;2.66;79.50;93978.09;5093411;28;20101;-48
2020/12/06 08:54:00;;;;;;;32.08;16.20;;;;;;;2.91;78.76;93995.75;5092128;28;20527;-47
2020/12/06 08:56:35;;;;;;;35.47;16.80;;;;;;;2.63;79.83;93994.78;5091729;28;20106;-44
2020/12/06 08:59:07;;;;;;;32.78;17.33;;;;;;;2.68;79.92;93995.38;5093499;28;20124;-43
2020/12/06 09:01:51;;;;;;;28.25;15.65;;;;;;;2.64;79.21;93975.78;5093378;28;20078;-45
2020/12/06 09:04:18;;;;;;;32.35;17.65;;;;;;;2.87;79.01;93970.81;5093065;28;20417;-45
2020/12/06 09:06:45;;;;;;;27.70;15.65;;;;;;;2.95;78.26;93966.50;5092911;28;20131;-48
2020/12/06 09:09:12;;;;;;;30.45;15.95;;;;;;;2.99;78.08;93943.34;5093146;28;20566;-45
2020/12/06 09:11:39;;;;;;;32.67;17.75;;;;;;;3.18;77.95;93950.81;5093321;28;20071;-48
2020/12/06 09:14:06;;;;;;;31.23;16.15;;;;;;;3.23;77.78;93942.59;5092813;28;20040;-46
2020/12/06 09:16:32;;;;;;;31.35;17.30;;;;;;;3.31;77.18;93939.00;5092204;28;20151;-46
2020/12/06 09:18:59;;;;;;;34.60;16.98;;;;;;;3.32;77.38;93940.59;5091534;28;20056;-48
2020/12/06 09:21:25;;;;;;;32.55;16.08;;;;;;;3.32;77.35;93945.94;5092840;28;20451;-46
2020/12/06 09:23:51;;;;;;;32.70;17.73;;;;;;;3.41;76.82;93946.59;5092359;28;20113;-47
2020/12/06 09:26:18;;;;;;;27.52;15.30;;;;;;;3.43;77.04;93936.34;5091861;28;20134;-46
2020/12/06 09:28:44;;;;;;;33.03;17.48;;;;;;;3.62;76.60;93935.78;5092858;28;20094;-47
2020/12/06 09:31:11;;;;;;;27.80;15.95;;;;;;;3.75;75.85;93949.91;5092461;28;20127;-48
2020/12/06 09:33:37;;;;;;;28.27;16.27;;;;;;;3.59;76.67;93941.00;5092394;28;20051;-47
2020/12/06 09:36:04;;;;;;;31.13;16.40;;;;;;;3.61;75.81;93928.09;5091678;28;20047;-47
2020/12/06 09:38:30;;;;;;;28.35;16.38;;;;;;;3.68;75.49;93906.91;5092339;28;20592;-46
2020/12/06 09:40:57;;;;;;;24.67;14.45;;;;;;;3.64;76.08;93917.50;5092551;28;20139;-50
2020/12/06 09:43:23;;;;;;;32.10;16.88;;;;;;;3.87;75.68;93923.13;5092566;28;20058;-49
2020/12/06 09:45:50;;;;;;;27.65;14.98;;;;;;;3.85;75.71;93930.72;5092192;28;20105;-51
2020/12/06 09:48:17;;;;;;;28.38;16.63;;;;;;;4.12;74.73;93944.44;5092266;28;20047;-49
2020/12/06 09:50:43;;;;;;;31.23;17.52;;;;;;;4.19;74.33;93955.34;5092583;28;20455;-50
2020/12/06 09:53:10;;;;;;;24.48;13.73;;;;;;;4.16;73.99;93951.47;5092803;28;20084;-51
2020/12/06 09:55:36;;;;;;;23.05;14.27;;;;;;;4.10;74.24;93950.16;5091782;28;20419;-49
2020/12/06 09:58:03;;;;;;;23.20;13.27;;;;;;;4.14;73.87;93932.28;5092471;28;20047;-49
2020/12/06 10:00:29;;;;;;;25.73;14.40;;;;;;;3.94;75.07;93926.00;5091975;28;20044;-48
2020/12/06 10:02:56;;;;;;;24.13;14.00;;;;;;;4.15;74.20;93933.06;5092171;28;20510;-46
2020/12/06 10:05:22;;;;;;;23.40;12.38;;;;;;;4.08;74.05;93933.66;5091782;28;20438;-49
2020/12/06 10:07:49;;;;;;;19.98;11.60;;;;;;;4.14;73.85;93936.88;5092444;28;20075;-47
2020/12/06 10:10:15;;;;;;;22.85;12.73;;;;;;;4.30;73.34;93935.03;5110405;22;20126;-50
2020/12/06 10:12:43;;;;;;;21.33;10.93;;;;;;;3.91;75.25;93933.94;5091523;28;20126;-51
2020/12/06 10:15:09;;;;;;;20.02;11.25;;;;;;;3.82;74.91;93939.41;5091485;28;20480;-48
2020/12/06 10:17:38;;;;;;;19.50;11.10;;;;;;;3.96;74.93;93928.34;5090732;28;20048;-49
2020/12/06 10:20:06;;;;;;;18.27;10.00;;;;;;;3.95;74.32;93908.81;5090973;28;20056;-51
2020/12/06 10:22:33;;;;;;;19.05;10.40;;;;;;;4.30;73.84;93902.91;5073316;28;20048;-51
2020/12/06 10:25:05;;;;;;;16.90;9.50;;;;;;;4.04;74.46;93889.19;5091298;28;20121;-49
2020/12/06 10:27:33;;;;;;;16.50;9.43;;;;;;;4.33;73.50;93907.56;5090668;28;20509;-50
2020/12/06 10:29:59;;;;;;;17.80;10.15;;;;;;;4.53;72.78;93897.00;5089953;28;20059;-49
2020/12/06 10:32:26;;;;;;;17.90;9.80;;;;;;;4.81;72.51;93887.00;5091745;28;20143;-52
2020/12/06 10:34:53;;;;;;;19.08;10.57;;;;;;;4.96;71.55;93882.75;5091571;28;20413;-49
2020/12/06 10:37:20;;;;;;;17.98;9.95;;;;;;;4.59;72.65;93883.00;5092513;28;20055;-51
2020/12/06 10:39:47;;;;;;;17.55;9.90;;;;;;;4.45;73.94;93888.78;5094158;28;20082;-45
2020/12/06 10:42:13;;;;;;;17.90;10.63;;;;;;;4.81;72.54;93897.72;5095499;28;20048;-45
2020/12/06 10:44:40;;;;;;;16.90;10.27;;;;;;;5.24;71.50;93890.72;5094509;28;20062;-46
2020/12/06 10:47:06;;;;;;;17.50;10.13;;;;;;;5.13;71.49;93885.09;5094077;28;20105;-48
2020/12/06 10:49:33;;;;;;;16.33;9.25;;;;;;;5.16;71.22;93895.09;5094184;28;20432;-48
2020/12/06 10:52:00;;;;;;;17.00;9.45;;;;;;;5.14;70.58;93896.59;5093945;28;20471;-50
2020/12/06 10:54:27;;;;;;;18.83;9.57;;;;;;;4.70;72.83;93904.69;5095084;28;20493;-48
2020/12/06 10:56:54;;;;;;;20.85;11.77;;;;;;;5.26;72.56;93911.78;5094445;28;20123;-47
2020/12/06 10:59:21;;;;;;;16.00;8.80;;;;;;;5.18;71.08;93894.78;5095136;28;20056;-50
2020/12/06 11:01:47;;;;;;;18.23;9.88;;;;;;;5.34;69.83;93884.81;5095334;28;20101;-46
2020/12/06 11:04:13;;;;;;;20.17;10.10;;;;;;;5.33;70.51;93880.56;5095121;28;20127;-47
2020/12/06 11:06:40;;;;;;;19.73;10.90;;;;;;;5.47;70.38;93882.78;5095178;28;20139;-47
2020/12/06 11:09:06;;;;;;;17.20;9.80;;;;;;;5.47;70.38;93877.44;5095360;28;20125;-47
2020/12/06 11:11:32;;;;;;;18.10;9.30;;;;;;;5.35;70.30;93878.31;5076701;28;20052;-53
2020/12/06 11:13:59;;;;;;;16.70;9.75;;;;;;;5.25;71.27;93876.16;5095068;28;20075;-50
2020/12/06 11:16:25;;;;;;;16.40;10.05;;;;;;;5.20;70.83;93886.38;5093876;28;20048;-46
2020/12/06 11:18:52;;;;;;;17.27;10.05;;;;;;;4.99;71.97;93884.75;5094693;28;20134;-48
2020/12/06 11:21:20;;;;;;;17.10;9.73;;;;;;;4.86;72.35;93880.59;5093551;28;20052;-52
2020/12/06 11:23:48;;;;;;;20.15;10.65;;;;;;;4.36;74.28;93879.34;5094441;28;20075;-49
2020/12/06 11:26:16;;;;;;;19.45;10.93;;;;;;;4.44;74.50;93887.22;5094067;28;20070;-50
2020/12/06 11:28:45;;;;;;;21.63;11.35;;;;;;;4.09;75.24;93881.69;5094229;28;20048;-50